createdAt,value
2023-04-09T00:01:04.182Z,10.40
2023-04-09T00:03:31.528Z,11.80
2023-04-09T00:05:58.737Z,11.27
2023-04-09T00:08:26.252Z,10.90
2023-04-09T00:10:53.932Z,10.87
2023-04-09T00:13:35.644Z,10.63
2023-04-09T00:16:06.275Z,11.17
2023-04-09T00:18:33.526Z,10.53
2023-04-09T00:21:00.770Z,11.37
2023-04-09T00:23:28.113Z,11.40
2023-04-09T00:25:55.307Z,10.50
2023-04-09T00:28:22.544Z,10.37
2023-04-09T00:30:49.641Z,10.60
2023-04-09T00:33:16.813Z,10.77
2023-04-09T00:35:43.997Z,10.13
2023-04-09T00:38:11.246Z,10.60
2023-04-09T00:40:38.354Z,10.20
2023-04-09T00:43:05.702Z,11.03
2023-04-09T00:45:32.821Z,10.77
2023-04-09T00:48:00.383Z,10.03
2023-04-09T00:50:27.512Z,10.30
2023-04-09T00:52:54.675Z,10.37
2023-04-09T00:55:22.075Z,10.37
2023-04-09T00:57:49.464Z,9.60
2023-04-09T01:00:16.673Z,10.10
2023-04-09T01:02:44.333Z,10.40
2023-04-09T01:05:11.981Z,10.23
2023-04-09T01:07:57.953Z,11.30
2023-04-09T01:10:33.121Z,10.27
2023-04-09T01:13:18.789Z,9.53
2023-04-09T01:15:52.976Z,9.90
2023-04-09T01:18:24.036Z,10.13
2023-04-09T01:20:57.441Z,9.90
2023-04-09T01:23:35.985Z,9.77
2023-04-09T01:26:19.536Z,9.67
2023-04-09T01:28:48.251Z,9.20
2023-04-09T01:31:19.522Z,9.67
2023-04-09T01:33:47.612Z,10.23
2023-04-09T01:36:15.647Z,10.00
2023-04-09T01:38:43.497Z,9.67
2023-04-09T01:41:12.776Z,8.80
2023-04-09T01:43:40.938Z,8.90
2023-04-09T01:46:08.508Z,9.47
2023-04-09T01:48:36.052Z,9.50
2023-04-09T01:51:03.285Z,10.10
2023-04-09T01:53:31.151Z,9.67
2023-04-09T01:56:01.600Z,10.30
2023-04-09T01:58:28.906Z,11.00
2023-04-09T02:01:06.263Z,9.87
2023-04-09T02:03:47.248Z,10.23
2023-04-09T02:06:15.790Z,9.80
2023-04-09T02:08:47.506Z,9.43
2023-04-09T02:11:15.476Z,10.20
2023-04-09T02:13:43.725Z,10.00
2023-04-09T02:16:13.126Z,10.53
2023-04-09T02:18:40.450Z,10.27
2023-04-09T02:21:07.796Z,9.93
2023-04-09T02:23:35.099Z,10.27
2023-04-09T02:26:02.596Z,9.63
2023-04-09T02:28:29.709Z,9.83
2023-04-09T02:30:56.859Z,9.40
2023-04-09T02:33:24.168Z,9.53
2023-04-09T02:35:51.338Z,9.50
2023-04-09T02:38:18.572Z,10.23
2023-04-09T02:40:45.675Z,9.83
2023-04-09T02:43:12.792Z,10.00
2023-04-09T02:45:39.932Z,10.00
2023-04-09T02:48:07.133Z,10.50
2023-04-09T02:50:34.268Z,9.87
2023-04-09T02:53:01.392Z,9.53
2023-04-09T02:55:28.643Z,9.70
2023-04-09T02:57:55.861Z,9.27
2023-04-09T03:00:22.995Z,10.10
2023-04-09T03:02:50.400Z,10.53
2023-04-09T03:05:17.666Z,10.60
2023-04-09T03:07:44.804Z,10.30
2023-04-09T03:10:11.979Z,9.27
2023-04-09T03:12:39.113Z,9.30
2023-04-09T03:15:06.673Z,9.67
2023-04-09T03:17:33.975Z,9.93
2023-04-09T03:20:01.120Z,9.83
2023-04-09T03:22:28.278Z,10.17
2023-04-09T03:24:55.553Z,10.20
2023-04-09T03:27:22.730Z,10.47
2023-04-09T03:29:49.909Z,10.43
2023-04-09T03:32:18.971Z,10.20
2023-04-09T03:34:46.299Z,10.57
2023-04-09T03:37:13.537Z,9.40
2023-04-09T03:39:40.850Z,10.20
2023-04-09T03:42:08.383Z,10.50
2023-04-09T03:44:35.690Z,10.00
2023-04-09T03:47:03.361Z,9.73
2023-04-09T03:49:30.566Z,10.57
2023-04-09T03:51:57.733Z,9.60
2023-04-09T03:54:24.843Z,9.17
2023-04-09T03:56:51.954Z,9.83
2023-04-09T03:59:19.114Z,9.50
2023-04-09T04:01:46.432Z,10.50
2023-04-09T04:04:13.714Z,10.47
2023-04-09T04:06:41.006Z,10.07
2023-04-09T04:09:08.170Z,10.70
2023-04-09T04:11:35.363Z,10.27
2023-04-09T04:14:02.554Z,10.63
2023-04-09T04:16:29.716Z,10.07
2023-04-09T04:18:56.894Z,9.43
2023-04-09T04:21:24.047Z,10.53
2023-04-09T04:23:51.244Z,10.53
2023-04-09T04:26:18.337Z,11.07
2023-04-09T04:28:45.729Z,10.43
2023-04-09T04:31:13.124Z,11.30
2023-04-09T04:33:41.053Z,10.47
2023-04-09T04:36:09.383Z,11.43
2023-04-09T04:38:37.056Z,10.10
2023-04-09T04:41:04.484Z,10.97
2023-04-09T04:43:32.454Z,10.57
2023-04-09T04:45:59.665Z,10.90
2023-04-09T04:48:28.164Z,11.07
2023-04-09T04:50:56.965Z,10.43
2023-04-09T04:53:24.161Z,10.57
2023-04-09T04:55:51.368Z,10.83
2023-04-09T04:58:18.587Z,10.30
2023-04-09T05:00:46.136Z,11.37
2023-04-09T05:03:13.564Z,11.20
2023-04-09T05:05:40.767Z,10.23
2023-04-09T05:08:08.052Z,10.40
2023-04-09T05:10:35.491Z,10.80
2023-04-09T05:13:02.660Z,10.70
2023-04-09T05:15:30.838Z,11.60
2023-04-09T05:17:58.433Z,11.13
2023-04-09T05:20:25.768Z,11.20
2023-04-09T05:22:52.939Z,10.90
2023-04-09T05:25:20.343Z,12.20
2023-04-09T05:27:47.479Z,11.57
2023-04-09T05:30:14.646Z,11.03
2023-04-09T05:32:41.868Z,11.73
2023-04-09T05:35:09.199Z,12.53
2023-04-09T05:37:36.396Z,11.70
2023-04-09T05:40:03.582Z,11.97
2023-04-09T05:42:30.812Z,12.70
2023-04-09T05:44:58.001Z,13.00
2023-04-09T05:47:25.206Z,12.03
2023-04-09T05:49:52.411Z,12.53
2023-04-09T05:52:21.424Z,12.23
2023-04-09T05:54:48.694Z,13.17
2023-04-09T05:57:15.851Z,13.57
2023-04-09T05:59:43.116Z,13.03
2023-04-09T06:02:10.439Z,13.00
2023-04-09T06:04:37.777Z,13.00
2023-04-09T06:07:04.909Z,13.07
2023-04-09T06:09:32.057Z,12.93
2023-04-09T06:11:59.153Z,13.90
2023-04-09T06:14:26.349Z,13.47
2023-04-09T06:16:53.497Z,14.07
2023-04-09T06:19:20.856Z,14.10
2023-04-09T06:21:47.943Z,13.93
2023-04-09T06:24:15.083Z,13.67
2023-04-09T06:26:42.390Z,14.03
2023-04-09T06:29:09.526Z,13.80
2023-04-09T06:31:36.747Z,13.80
2023-04-09T06:34:04.080Z,14.60
2023-04-09T06:36:31.259Z,14.40
2023-04-09T06:38:59.126Z,14.53
2023-04-09T06:41:26.604Z,14.43
2023-04-09T06:43:53.942Z,14.87
2023-04-09T06:46:21.353Z,15.03
2023-04-09T06:48:48.609Z,13.83
2023-04-09T06:51:15.905Z,14.10
2023-04-09T06:53:43.207Z,13.43
2023-04-09T06:56:10.480Z,14.33
2023-04-09T06:58:37.653Z,13.90
2023-04-09T07:01:04.850Z,14.13
2023-04-09T07:03:32.317Z,15.20
2023-04-09T07:05:59.579Z,14.43
2023-04-09T07:08:26.834Z,14.43
2023-04-09T07:10:54.030Z,14.33
2023-04-09T07:13:21.421Z,14.63
2023-04-09T07:15:48.568Z,14.00
2023-04-09T07:18:15.749Z,14.83
2023-04-09T07:20:42.907Z,15.03
2023-04-09T07:23:10.490Z,14.73
2023-04-09T07:25:37.739Z,15.13
2023-04-09T07:28:04.872Z,15.70
2023-04-09T07:30:32.863Z,16.03
2023-04-09T07:33:00.345Z,15.90
2023-04-09T07:35:27.721Z,15.63
2023-04-09T07:37:54.890Z,15.60
2023-04-09T07:40:22.044Z,15.53
2023-04-09T07:42:49.775Z,15.97
2023-04-09T07:45:17.250Z,16.20
2023-04-09T07:47:44.474Z,16.20
2023-04-09T07:50:12.408Z,16.23
2023-04-09T07:52:39.699Z,15.97
2023-04-09T07:55:07.083Z,15.97
2023-04-09T07:57:34.334Z,16.03
2023-04-09T08:00:01.614Z,15.30
2023-04-09T08:02:28.962Z,14.83
2023-04-09T08:04:56.612Z,14.60
2023-04-09T08:07:23.975Z,15.07
2023-04-09T08:09:51.413Z,15.80
2023-04-09T08:12:18.553Z,15.33
2023-04-09T08:14:45.837Z,15.93
2023-04-09T08:17:13.210Z,14.93
2023-04-09T08:19:41.904Z,15.17
2023-04-09T08:22:09.288Z,15.17
2023-04-09T08:24:37.192Z,14.90
2023-04-09T08:27:04.639Z,14.90
2023-04-09T08:29:32.137Z,14.93
2023-04-09T08:31:59.362Z,15.70
2023-04-09T08:34:26.561Z,14.77
2023-04-09T08:36:53.883Z,14.77
2023-04-09T08:39:21.179Z,14.73
2023-04-09T08:41:48.437Z,15.23
2023-04-09T08:44:15.724Z,15.03
2023-04-09T08:46:43.338Z,15.93
2023-04-09T08:49:13.233Z,15.47
2023-04-09T08:51:40.464Z,15.50
2023-04-09T08:54:07.676Z,15.47
2023-04-09T08:56:34.879Z,15.97
2023-04-09T08:59:02.091Z,15.30
2023-04-09T09:01:30.117Z,15.23
2023-04-09T09:04:08.316Z,15.10
2023-04-09T09:06:36.538Z,15.97
2023-04-09T09:09:10.625Z,15.60
2023-04-09T09:11:39.580Z,15.53
2023-04-09T09:14:07.740Z,15.90
2023-04-09T09:16:35.933Z,17.00
2023-04-09T09:19:03.368Z,16.03
2023-04-09T09:21:30.944Z,15.33
2023-04-09T09:23:58.887Z,16.17
2023-04-09T09:26:27.430Z,15.47
2023-04-09T09:28:54.946Z,15.57
2023-04-09T09:31:23.261Z,14.60
2023-04-09T09:33:51.175Z,15.60
2023-04-09T09:36:34.703Z,15.17
2023-04-09T09:39:10.262Z,15.20
2023-04-09T09:41:37.872Z,15.57
2023-04-09T09:44:07.186Z,15.40
2023-04-09T09:46:35.776Z,15.47
2023-04-09T09:49:03.099Z,15.03
2023-04-09T09:51:32.421Z,15.00
2023-04-09T09:53:59.849Z,15.40
2023-04-09T09:56:34.411Z,15.43
2023-04-09T09:59:03.907Z,15.30
2023-04-09T10:01:31.346Z,16.23
2023-04-09T10:04:00.750Z,14.33
2023-04-09T10:06:28.261Z,14.63
2023-04-09T10:08:58.249Z,15.67
2023-04-09T10:11:25.607Z,15.03
2023-04-09T10:13:59.175Z,14.80
2023-04-09T10:16:27.292Z,15.37
2023-04-09T10:18:55.958Z,15.10
2023-04-09T10:21:42.880Z,16.67
2023-04-09T10:24:10.605Z,15.53
2023-04-09T10:26:41.648Z,16.27
2023-04-09T10:29:15.335Z,15.77
2023-04-09T10:31:47.578Z,15.80
2023-04-09T10:34:19.145Z,15.20
2023-04-09T10:36:51.557Z,16.17
2023-04-09T10:39:18.773Z,15.53
2023-04-09T10:41:47.222Z,15.33
2023-04-09T10:44:21.541Z,15.53
2023-04-09T10:46:49.455Z,15.83
2023-04-09T10:49:18.061Z,15.20
2023-04-09T10:51:51.526Z,13.83
2023-04-09T10:54:33.892Z,13.30
2023-04-09T10:57:10.017Z,13.37
2023-04-09T10:59:38.145Z,13.33
2023-04-09T11:02:09.168Z,13.03
2023-04-09T11:04:36.447Z,13.73
2023-04-09T11:07:05.409Z,12.87
2023-04-09T11:09:36.030Z,12.80
2023-04-09T11:12:03.791Z,13.80
2023-04-09T11:14:31.699Z,12.80
2023-04-09T11:16:58.859Z,13.03
2023-04-09T11:19:26.306Z,12.93
2023-04-09T11:21:53.524Z,12.97
2023-04-09T11:24:20.815Z,14.47
2023-04-09T11:26:49.178Z,14.40
2023-04-09T11:29:16.615Z,14.43
2023-04-09T11:31:46.589Z,13.33
2023-04-09T11:34:13.770Z,14.37
2023-04-09T11:36:41.448Z,13.83
2023-04-09T11:39:08.597Z,14.00
2023-04-09T11:41:35.844Z,13.67
2023-04-09T11:44:04.312Z,13.87
2023-04-09T11:46:39.105Z,14.50
2023-04-09T11:49:06.864Z,14.60
2023-04-09T11:51:35.538Z,14.47
2023-04-09T11:54:09.080Z,14.90
2023-04-09T11:56:36.795Z,13.97
2023-04-09T11:59:04.234Z,13.57
2023-04-09T12:01:35.445Z,13.50
2023-04-09T12:04:02.977Z,13.33
2023-04-09T12:06:30.603Z,13.90
2023-04-09T12:08:58.807Z,13.43
2023-04-09T12:11:29.908Z,14.37
2023-04-09T12:14:01.351Z,12.87
2023-04-09T12:16:31.404Z,13.93
2023-04-09T12:19:06.994Z,13.23
2023-04-09T12:21:58.193Z,12.67
2023-04-09T12:24:28.054Z,12.80
2023-04-09T12:26:56.451Z,14.10
2023-04-09T12:29:24.884Z,13.13
2023-04-09T12:31:53.747Z,12.53
2023-04-09T12:34:21.382Z,12.17
2023-04-09T12:36:48.456Z,12.63
2023-04-09T12:39:15.992Z,12.13
2023-04-09T12:41:43.279Z,11.93
2023-04-09T12:44:10.530Z,11.73
2023-04-09T12:46:37.964Z,12.40
2023-04-09T12:49:06.085Z,11.93
2023-04-09T12:51:33.319Z,11.90
2023-04-09T12:54:00.578Z,13.03
2023-04-09T12:56:29.758Z,12.30
2023-04-09T12:58:57.016Z,13.00
2023-04-09T13:01:24.252Z,13.77
2023-04-09T13:03:51.768Z,13.07
2023-04-09T13:06:19.091Z,13.00
2023-04-09T13:08:46.601Z,13.10
2023-04-09T13:11:13.735Z,13.43
2023-04-09T13:13:42.626Z,14.07
2023-04-09T13:16:09.904Z,13.23
2023-04-09T13:18:37.441Z,12.73
2023-04-09T13:21:04.600Z,13.63
2023-04-09T13:23:31.874Z,13.93
2023-04-09T13:26:00.372Z,14.67
2023-04-09T13:28:27.659Z,15.57
2023-04-09T13:30:54.891Z,14.37
2023-04-09T13:33:22.104Z,15.17
2023-04-09T13:35:49.289Z,14.53
2023-04-09T13:38:16.608Z,15.43
2023-04-09T13:40:43.759Z,15.43
2023-04-09T13:43:10.890Z,14.93
2023-04-09T13:45:38.071Z,14.57
2023-04-09T13:48:06.128Z,14.73
2023-04-09T13:50:33.534Z,13.90
2023-04-09T13:53:03.206Z,13.73
2023-04-09T13:55:30.942Z,13.23
2023-04-09T13:57:58.089Z,13.03
2023-04-09T14:00:25.252Z,13.20
2023-04-09T14:02:52.533Z,13.03
2023-04-09T14:05:19.763Z,12.67
2023-04-09T14:07:46.957Z,12.47
2023-04-09T14:10:14.149Z,13.37
2023-04-09T14:12:41.415Z,12.63
2023-04-09T14:15:08.803Z,10.90
2023-04-09T14:17:36.235Z,10.57
2023-04-09T14:20:06.622Z,10.63
2023-04-09T14:22:33.760Z,10.20
2023-04-09T14:25:01.265Z,9.40
2023-04-09T14:27:28.452Z,10.03
2023-04-09T14:29:55.620Z,9.53
2023-04-09T14:32:23.085Z,9.23
2023-04-09T14:34:50.365Z,9.80
2023-04-09T14:37:17.528Z,9.33
2023-04-09T14:39:44.688Z,9.10
2023-04-09T14:42:12.623Z,9.07
2023-04-09T14:44:39.808Z,10.03
2023-04-09T14:47:07.255Z,8.93
2023-04-09T14:49:34.418Z,8.70
2023-04-09T14:52:01.727Z,9.13
2023-04-09T14:54:30.451Z,8.77
2023-04-09T14:56:58.409Z,9.50
2023-04-09T14:59:25.825Z,8.77
2023-04-09T15:01:53.087Z,9.10
2023-04-09T15:04:20.331Z,9.63
2023-04-09T15:06:47.914Z,9.50
2023-04-09T15:09:15.536Z,9.00
2023-04-09T15:11:42.709Z,9.80
2023-04-09T15:14:09.964Z,8.40
2023-04-09T15:16:37.664Z,7.73
2023-04-09T15:19:05.265Z,8.20
2023-04-09T15:21:32.457Z,7.93
2023-04-09T15:24:00.250Z,7.40
2023-04-09T15:26:27.521Z,7.33
2023-04-09T15:29:02.310Z,7.23
2023-04-09T15:31:29.506Z,7.57
2023-04-09T15:33:56.609Z,7.40
2023-04-09T15:36:23.780Z,6.27
2023-04-09T15:38:54.351Z,6.90
2023-04-09T15:41:23.895Z,6.67
2023-04-09T15:43:51.840Z,6.40
2023-04-09T15:46:19.120Z,6.90
2023-04-09T15:48:46.348Z,6.70
2023-04-09T15:51:13.795Z,7.20
2023-04-09T15:53:41.013Z,7.57
2023-04-09T15:56:09.761Z,7.53
2023-04-09T15:58:38.108Z,7.80
2023-04-09T16:01:08.749Z,7.00
2023-04-09T16:03:41.027Z,8.03
2023-04-09T16:06:09.734Z,7.90
2023-04-09T16:08:37.473Z,8.60
2023-04-09T16:11:05.560Z,8.70
2023-04-09T16:13:32.751Z,8.80
2023-04-09T16:15:59.910Z,8.20
2023-04-09T16:18:27.449Z,8.47
2023-04-09T16:20:55.400Z,8.73
2023-04-09T16:23:23.126Z,8.27
2023-04-09T16:25:50.845Z,7.60
2023-04-09T16:28:19.461Z,7.30
2023-04-09T16:30:46.723Z,8.00
2023-04-09T16:33:14.059Z,7.43
2023-04-09T16:35:42.073Z,8.43
2023-04-09T16:38:09.361Z,8.37
2023-04-09T16:40:36.628Z,8.33
2023-04-09T16:43:04.053Z,8.43
2023-04-09T16:45:32.006Z,8.07
2023-04-09T16:47:59.303Z,8.40
2023-04-09T16:50:27.037Z,7.80
2023-04-09T16:52:54.202Z,8.40
2023-04-09T16:55:21.612Z,7.63
2023-04-09T16:57:48.884Z,7.97
2023-04-09T17:00:17.754Z,8.30
2023-04-09T17:02:46.342Z,8.60
2023-04-09T17:05:13.720Z,9.20
2023-04-09T17:07:41.295Z,8.60
2023-04-09T17:10:08.775Z,8.20
2023-04-09T17:12:36.231Z,7.70
2023-04-09T17:15:03.475Z,8.30
2023-04-09T17:17:30.957Z,7.93
2023-04-09T17:20:00.019Z,8.83
2023-04-09T17:22:27.457Z,8.27
2023-04-09T17:24:54.558Z,7.97
2023-04-09T17:27:21.827Z,8.70
2023-04-09T17:29:48.962Z,8.63
2023-04-09T17:32:16.233Z,8.10
2023-04-09T17:34:43.438Z,8.63
2023-04-09T17:37:10.571Z,8.10
2023-04-09T17:39:37.772Z,8.43
2023-04-09T17:42:05.360Z,8.70
2023-04-09T17:44:35.284Z,8.70
2023-04-09T17:47:02.823Z,8.83
2023-04-09T17:49:31.372Z,8.77
2023-04-09T17:51:58.881Z,8.90
2023-04-09T17:54:26.041Z,8.33
2023-04-09T17:56:53.201Z,8.60
2023-04-09T17:59:20.617Z,9.07
2023-04-09T18:01:47.827Z,9.60
2023-04-09T18:04:16.304Z,10.03
2023-04-09T18:06:43.623Z,9.77
2023-04-09T18:09:10.909Z,10.23
2023-04-09T18:11:38.016Z,9.63
2023-04-09T18:14:08.044Z,9.30
2023-04-09T18:16:38.724Z,9.10
2023-04-09T18:19:06.711Z,9.77
2023-04-09T18:21:36.454Z,8.90
2023-04-09T18:24:03.910Z,9.47
2023-04-09T18:26:33.498Z,9.03
2023-04-09T18:29:01.766Z,9.00
2023-04-09T18:31:29.116Z,8.97
2023-04-09T18:33:56.544Z,9.00
2023-04-09T18:36:23.725Z,8.47
2023-04-09T18:38:51.069Z,8.50
2023-04-09T18:41:24.814Z,9.40
2023-04-09T18:43:52.180Z,8.97
2023-04-09T18:46:19.603Z,8.30
2023-04-09T18:48:47.139Z,8.50
2023-04-09T18:51:14.542Z,9.03
2023-04-09T18:53:42.225Z,9.03
2023-04-09T18:56:09.589Z,9.37
2023-04-09T18:58:36.766Z,9.43
2023-04-09T19:01:11.157Z,9.17
2023-04-09T19:03:38.853Z,9.47
2023-04-09T19:06:13.285Z,9.83
2023-04-09T19:08:40.571Z,9.40
2023-04-09T19:11:08.036Z,8.77
2023-04-09T19:13:35.747Z,14.53
2023-04-09T19:16:03.117Z,9.87
2023-04-09T19:18:31.175Z,9.10
2023-04-09T19:20:58.943Z,9.57
2023-04-09T19:23:26.762Z,10.00
2023-04-09T19:25:55.257Z,10.87
2023-04-09T19:28:22.792Z,10.80
2023-04-09T19:30:52.354Z,11.93
2023-04-09T19:33:22.781Z,12.47
2023-04-09T19:35:50.661Z,12.77
2023-04-09T19:38:18.409Z,12.00
2023-04-09T19:40:46.252Z,11.97
2023-04-09T19:43:13.504Z,10.70
2023-04-09T19:45:41.374Z,10.80
2023-04-09T19:48:08.879Z,10.67
2023-04-09T19:50:37.795Z,10.33
2023-04-09T19:53:06.034Z,10.10
2023-04-09T19:55:36.510Z,10.60
2023-04-09T19:58:03.792Z,8.93
2023-04-09T20:00:31.347Z,9.30
2023-04-09T20:02:58.744Z,14.90
2023-04-09T20:05:26.219Z,9.63
2023-04-09T20:07:53.374Z,9.33
2023-04-09T20:10:20.864Z,9.27
2023-04-09T20:12:51.884Z,9.67
2023-04-09T20:15:22.365Z,9.97
2023-04-09T20:17:52.063Z,8.60
2023-04-09T20:20:20.210Z,8.80
2023-04-09T20:22:55.539Z,8.90
2023-04-09T20:25:23.761Z,9.47
2023-04-09T20:27:53.307Z,10.10
2023-04-09T20:30:20.897Z,9.10
2023-04-09T20:32:48.987Z,8.93
2023-04-09T20:35:16.417Z,9.40
2023-04-09T20:37:44.110Z,8.87
2023-04-09T20:40:14.250Z,9.17
2023-04-09T20:42:41.785Z,9.40
2023-04-09T20:45:09.551Z,9.37
2023-04-09T20:47:36.871Z,9.50
2023-04-09T20:50:04.953Z,10.53
2023-04-09T20:52:32.276Z,10.30
2023-04-09T20:54:59.571Z,10.60
2023-04-09T20:57:27.173Z,17.10
2023-04-09T20:59:54.429Z,13.97
2023-04-09T21:02:21.985Z,14.97
2023-04-09T21:04:49.347Z,10.10
2023-04-09T21:07:16.550Z,11.70
2023-04-09T21:09:43.763Z,10.70
2023-04-09T21:12:10.856Z,10.37
2023-04-09T21:14:37.984Z,9.93
2023-04-09T21:17:05.279Z,10.33
2023-04-09T21:19:32.523Z,10.10
2023-04-09T21:21:59.624Z,10.03
2023-04-09T21:24:27.813Z,9.83
2023-04-09T21:26:55.423Z,9.33
2023-04-09T21:29:22.619Z,9.73
2023-04-09T21:31:50.106Z,9.60
2023-04-09T21:34:17.293Z,10.80
2023-04-09T21:36:45.541Z,11.03
2023-04-09T21:39:12.860Z,11.50
2023-04-09T21:41:40.213Z,11.00
2023-04-09T21:44:10.165Z,10.80
2023-04-09T21:46:37.867Z,10.33
2023-04-09T21:49:05.513Z,10.40
2023-04-09T21:51:33.124Z,10.40
2023-04-09T21:54:07.359Z,9.87
2023-04-09T21:56:34.949Z,11.47
2023-04-09T21:59:02.496Z,10.97
2023-04-09T22:01:34.470Z,10.70
2023-04-09T22:04:02.276Z,10.70
2023-04-09T22:06:29.970Z,10.37
2023-04-09T22:08:58.238Z,10.37
2023-04-09T22:11:29.407Z,10.67
2023-04-09T22:13:57.152Z,10.53
2023-04-09T22:16:25.076Z,10.40
2023-04-09T22:18:52.776Z,10.37
2023-04-09T22:21:20.122Z,9.73
2023-04-09T22:23:47.320Z,9.83
2023-04-09T22:26:14.512Z,10.23
2023-04-09T22:28:41.701Z,9.50
2023-04-09T22:31:08.888Z,9.47
2023-04-09T22:33:36.036Z,11.57
2023-04-09T22:36:03.180Z,11.10
2023-04-09T22:38:30.361Z,10.23
2023-04-09T22:40:57.552Z,11.10
2023-04-09T22:43:24.670Z,10.80
2023-04-09T22:45:54.100Z,11.03
2023-04-09T22:48:22.032Z,10.57
2023-04-09T22:50:49.422Z,11.33
2023-04-09T22:53:19.706Z,11.30
2023-04-09T22:55:47.592Z,11.53
2023-04-09T22:58:15.683Z,11.53
2023-04-09T23:00:43.017Z,11.23
2023-04-09T23:03:10.385Z,11.10
2023-04-09T23:05:37.578Z,11.27
2023-04-09T23:08:05.127Z,12.13
2023-04-09T23:10:32.577Z,11.17
2023-04-09T23:12:59.699Z,11.50
2023-04-09T23:15:27.270Z,11.70
2023-04-09T23:17:54.648Z,12.07
2023-04-09T23:20:21.849Z,11.63
2023-04-09T23:22:49.439Z,11.77
2023-04-09T23:25:16.692Z,12.20
2023-04-09T23:27:44.162Z,12.03
2023-04-09T23:30:16.498Z,12.37
2023-04-09T23:32:46.537Z,12.00
2023-04-09T23:35:13.773Z,11.50
2023-04-09T23:37:41.275Z,11.23
2023-04-09T23:40:08.965Z,12.00
2023-04-09T23:42:36.343Z,12.33
2023-04-09T23:45:04.440Z,12.40
2023-04-09T23:47:33.507Z,12.13
2023-04-09T23:50:07.834Z,12.83
2023-04-09T23:52:35.712Z,12.53
2023-04-09T23:55:03.366Z,12.43
2023-04-09T23:57:30.621Z,12.50
2023-04-09T23:59:57.808Z,12.03
